createdAt,value
2016-09-18T00:00:10.569Z,17.32
2016-09-18T00:01:13.128Z,17.36
2016-09-18T00:01:37.617Z,17.41
2016-09-18T00:01:59.385Z,17.42
2016-09-18T00:02:21.205Z,17.42
2016-09-18T00:02:43.045Z,17.43
2016-09-18T00:03:10.635Z,17.36
2016-09-18T00:03:37.407Z,17.31
2016-09-18T00:04:26.240Z,17.42
2016-09-18T00:04:49.184Z,17.44
2016-09-18T00:05:10.937Z,17.39
2016-09-18T00:05:43.211Z,17.39
2016-09-18T00:06:05.977Z,17.41
2016-09-18T00:06:32.616Z,17.41
2016-09-18T00:06:54.380Z,17.44
2016-09-18T00:07:44.220Z,17.41
2016-09-18T00:08:05.960Z,17.39
2016-09-18T00:08:27.842Z,17.42
2016-09-18T00:08:49.775Z,17.35
2016-09-18T00:09:11.622Z,17.34
2016-09-18T00:09:33.391Z,17.33
2016-09-18T00:09:59.269Z,17.28
2016-09-18T00:10:26.805Z,17.28
2016-09-18T00:10:48.710Z,17.33
2016-09-18T00:11:13.330Z,17.40
2016-09-18T00:11:35.112Z,17.43
2016-09-18T00:11:57.087Z,17.40
2016-09-18T00:12:18.905Z,17.37
2016-09-18T00:12:46.511Z,17.30
2016-09-18T00:13:13.122Z,17.36
2016-09-18T00:13:44.421Z,17.43
2016-09-18T00:14:11.142Z,17.43
2016-09-18T00:14:34.204Z,17.48
2016-09-18T00:14:55.976Z,17.47
2016-09-18T00:15:18.963Z,17.50
2016-09-18T00:15:40.949Z,17.55
2016-09-18T00:16:02.779Z,17.56
2016-09-18T00:16:24.527Z,17.53
2016-09-18T00:16:46.274Z,17.53
2016-09-18T00:17:08.011Z,17.51
2016-09-18T00:17:29.816Z,17.47
2016-09-18T00:18:19.161Z,17.49
2016-09-18T00:18:40.997Z,17.50
2016-09-18T00:19:03.938Z,17.52
2016-09-18T00:19:26.706Z,17.53
2016-09-18T00:19:48.476Z,17.55
2016-09-18T00:20:11.215Z,17.43
2016-09-18T00:20:32.969Z,17.38
2016-09-18T00:20:54.710Z,17.33
2016-09-18T00:21:16.450Z,17.35
2016-09-18T00:21:38.434Z,17.37
2016-09-18T00:22:00.264Z,17.29
2016-09-18T00:22:22.028Z,17.25
2016-09-18T00:22:53.302Z,17.21
2016-09-18T00:23:15.235Z,17.18
2016-09-18T00:23:42.767Z,17.14
2016-09-18T00:24:04.658Z,17.20
2016-09-18T00:24:31.190Z,17.27
2016-09-18T00:24:53.004Z,17.24
2016-09-18T00:25:16.079Z,17.25
2016-09-18T00:25:37.890Z,17.32
2016-09-18T00:25:59.631Z,17.37
2016-09-18T00:26:21.407Z,17.44
2016-09-18T00:26:43.154Z,17.43
2016-09-18T00:27:04.898Z,17.44
2016-09-18T00:27:31.449Z,17.44
2016-09-18T00:27:53.183Z,17.47
2016-09-18T00:28:16.946Z,17.43
2016-09-18T00:28:39.780Z,17.42
2016-09-18T00:29:01.752Z,17.36
2016-09-18T00:29:28.194Z,17.40
2016-09-18T00:29:52.133Z,17.47
2016-09-18T00:30:14.034Z,17.50
2016-09-18T00:31:07.416Z,17.53
2016-09-18T00:31:34.035Z,17.53
2016-09-18T00:31:55.812Z,17.54
2016-09-18T00:32:23.321Z,17.58
2016-09-18T00:32:45.074Z,17.55
2016-09-18T00:33:06.843Z,17.51
2016-09-18T00:33:28.798Z,17.44
2016-09-18T00:33:50.556Z,17.43
2016-09-18T00:34:13.317Z,17.44
2016-09-18T00:34:35.083Z,17.46
2016-09-18T00:35:04.607Z,17.50
2016-09-18T00:35:52.959Z,17.52
2016-09-18T00:36:55.526Z,17.51
2016-09-18T00:37:18.332Z,17.49
2016-09-18T00:38:12.415Z,17.44
2016-09-18T00:38:46.220Z,17.46
2016-09-18T00:39:09.007Z,17.51
2016-09-18T00:39:30.767Z,17.46
2016-09-18T00:39:52.553Z,17.47
2016-09-18T00:40:14.292Z,17.42
2016-09-18T00:40:36.191Z,17.38
2016-09-18T00:40:58.201Z,17.44
2016-09-18T00:41:20.009Z,17.41
2016-09-18T00:42:28.098Z,17.46
2016-09-18T00:42:54.629Z,17.47
2016-09-18T00:43:22.162Z,17.52
2016-09-18T00:43:47.715Z,17.51
2016-09-18T00:44:11.499Z,17.44
2016-09-18T00:44:40.934Z,17.45
2016-09-18T00:45:03.778Z,17.39
2016-09-18T00:45:26.543Z,17.35
2016-09-18T00:45:53.139Z,17.28
2016-09-18T00:46:56.613Z,17.29
2016-09-18T00:47:19.368Z,17.35
2016-09-18T00:47:41.160Z,17.36
2016-09-18T00:48:02.919Z,17.38
2016-09-18T00:48:32.405Z,17.40
2016-09-18T00:48:55.516Z,17.39
2016-09-18T00:49:17.276Z,17.46
2016-09-18T00:49:43.819Z,17.49
2016-09-18T00:50:42.137Z,17.50
2016-09-18T00:51:36.201Z,17.43
2016-09-18T00:51:57.960Z,17.43
2016-09-18T00:52:20.737Z,17.41
2016-09-18T00:52:43.478Z,17.45
2016-09-18T00:53:12.751Z,17.48
2016-09-18T00:53:44.038Z,17.45
2016-09-18T00:54:10.783Z,17.45
2016-09-18T00:54:33.168Z,17.46
2016-09-18T00:54:55.964Z,17.48
2016-09-18T00:55:18.742Z,17.54
2016-09-18T00:56:11.919Z,17.52
2016-09-18T00:56:38.463Z,17.43
2016-09-18T00:57:04.822Z,17.31
2016-09-18T00:57:31.385Z,17.25
2016-09-18T00:58:28.059Z,17.37
2016-09-18T00:58:55.887Z,17.44
2016-09-18T00:59:23.426Z,17.46
2016-09-18T01:00:21.983Z,17.52
2016-09-18T01:01:49.107Z,17.51
2016-09-18T01:02:11.872Z,17.54
2016-09-18T01:02:38.393Z,17.57
2016-09-18T01:03:36.591Z,17.39
2016-09-18T01:05:10.556Z,17.23
2016-09-18T01:05:39.072Z,17.26
2016-09-18T01:06:02.870Z,17.25
2016-09-18T01:06:29.413Z,17.22
2016-09-18T01:08:07.721Z,17.10
2016-09-18T01:08:39.013Z,17.15
2016-09-18T01:09:39.682Z,17.26
2016-09-18T01:10:36.291Z,17.32
2016-09-18T01:11:34.937Z,17.34
2016-09-18T01:12:36.416Z,17.34
2016-09-18T01:13:07.740Z,17.31
2016-09-18T01:15:06.090Z,17.18
2016-09-18T01:16:20.205Z,17.34
2016-09-18T01:16:45.190Z,17.29
2016-09-18T01:17:15.445Z,17.25
2016-09-18T01:17:39.219Z,17.29
2016-09-18T01:18:32.236Z,17.34
2016-09-18T01:19:25.314Z,17.35
2016-09-18T01:20:53.714Z,17.49
2016-09-18T01:21:21.257Z,17.44
2016-09-18T01:21:48.806Z,17.46
2016-09-18T01:22:42.838Z,17.50
2016-09-18T01:23:43.750Z,17.52
2016-09-18T01:24:05.597Z,17.51
2016-09-18T01:24:28.393Z,17.47
2016-09-18T01:25:30.620Z,17.33
2016-09-18T01:26:23.638Z,17.34
2016-09-18T01:26:46.630Z,17.31
2016-09-18T01:27:40.661Z,17.18
2016-09-18T01:28:03.413Z,17.19
2016-09-18T01:28:25.276Z,17.18
2016-09-18T01:29:18.339Z,17.24
2016-09-18T01:29:40.220Z,17.21
2016-09-18T01:30:07.682Z,17.16
2016-09-18T01:30:34.195Z,17.20
2016-09-18T01:30:56.943Z,17.23
2016-09-18T01:31:32.217Z,17.27
2016-09-18T01:31:58.738Z,17.35
2016-09-18T01:32:20.488Z,17.36
2016-09-18T01:32:42.274Z,17.37
2016-09-18T01:33:04.025Z,17.37
2016-09-18T01:33:40.067Z,17.30
2016-09-18T01:34:13.158Z,17.21
2016-09-18T01:34:38.693Z,17.16
2016-09-18T01:35:51.932Z,17.19
2016-09-18T01:36:13.719Z,17.23
2016-09-18T01:36:40.249Z,17.27
2016-09-18T01:37:04.008Z,17.29
2016-09-18T01:37:32.531Z,17.30
2016-09-18T01:37:55.302Z,17.26
2016-09-18T01:39:10.444Z,17.26
2016-09-18T01:39:34.929Z,17.30
2016-09-18T01:40:27.976Z,17.27
2016-09-18T01:40:49.772Z,17.30
2016-09-18T01:41:11.545Z,17.34
2016-09-18T01:42:06.579Z,17.38
2016-09-18T01:42:59.619Z,17.37
2016-09-18T01:44:20.364Z,17.44
2016-09-18T01:45:10.931Z,17.29
2016-09-18T01:46:07.340Z,17.31
2016-09-18T01:46:38.616Z,17.34
2016-09-18T01:47:41.180Z,17.38
2016-09-18T01:48:02.940Z,17.30
2016-09-18T01:48:32.447Z,17.30
2016-09-18T01:49:06.563Z,17.37
2016-09-18T01:49:33.042Z,17.39
2016-09-18T01:49:54.809Z,17.40
2016-09-18T01:50:24.191Z,17.40
2016-09-18T01:50:50.719Z,17.38
2016-09-18T01:51:14.462Z,17.39
2016-09-18T01:51:41.974Z,17.39
2016-09-18T01:52:08.510Z,17.29
2016-09-18T01:52:30.258Z,17.25
2016-09-18T01:52:52.041Z,17.23
2016-09-18T01:53:13.822Z,17.26
2016-09-18T01:53:45.097Z,17.26
2016-09-18T01:54:17.379Z,17.28
2016-09-18T01:54:39.148Z,17.28
2016-09-18T01:55:32.165Z,17.29
2016-09-18T01:55:53.931Z,17.29
2016-09-18T01:56:17.762Z,17.25
2016-09-18T01:56:45.381Z,17.24
2016-09-18T01:57:12.933Z,17.24
2016-09-18T01:58:48.214Z,17.29
2016-09-18T01:59:42.118Z,17.28
2016-09-18T02:00:03.980Z,17.26
2016-09-18T02:01:05.816Z,17.14
2016-09-18T02:02:09.314Z,17.10
2016-09-18T02:03:14.802Z,17.24
2016-09-18T02:03:41.330Z,17.32
2016-09-18T02:04:56.198Z,17.45
2016-09-18T02:05:17.950Z,17.46
2016-09-18T02:06:10.991Z,17.43
2016-09-18T02:06:35.721Z,17.34
2016-09-18T02:07:02.220Z,17.34
2016-09-18T02:07:23.996Z,17.39
2016-09-18T02:07:45.851Z,17.38
2016-09-18T02:08:08.578Z,17.41
2016-09-18T02:09:02.633Z,17.40
2016-09-18T02:09:29.147Z,17.39
2016-09-18T02:09:50.901Z,17.42
2016-09-18T02:10:12.635Z,17.41
2016-09-18T02:10:36.418Z,17.33
2016-09-18T02:10:58.191Z,17.29
2016-09-18T02:11:20.937Z,17.26
2016-09-18T02:12:19.720Z,17.29
2016-09-18T02:12:41.474Z,17.33
2016-09-18T02:13:03.251Z,17.38
2016-09-18T02:14:01.887Z,17.30
2016-09-18T02:14:23.625Z,17.32
2016-09-18T02:14:48.139Z,17.31
2016-09-18T02:15:09.913Z,17.30
2016-09-18T02:15:31.771Z,17.35
2016-09-18T02:16:04.047Z,17.33
2016-09-18T02:16:31.756Z,17.35
2016-09-18T02:16:53.474Z,17.34
2016-09-18T02:17:15.231Z,17.31
2016-09-18T02:17:36.978Z,17.23
2016-09-18T02:17:58.754Z,17.24
2016-09-18T02:18:25.436Z,17.19
2016-09-18T02:18:47.478Z,17.14
2016-09-18T02:19:09.346Z,17.11
2016-09-18T02:19:32.114Z,17.14
2016-09-18T02:19:58.630Z,17.13
2016-09-18T02:20:24.383Z,17.11
2016-09-18T02:20:46.123Z,17.10
2016-09-18T02:21:09.000Z,17.20
2016-09-18T02:21:30.773Z,17.23
2016-09-18T02:22:56.508Z,17.22
2016-09-18T02:23:18.437Z,17.18
2016-09-18T02:23:40.213Z,17.16
2016-09-18T02:24:34.226Z,17.17
2016-09-18T02:24:56.997Z,17.20
2016-09-18T02:25:19.817Z,17.23
2016-09-18T02:25:46.406Z,17.20
2016-09-18T02:26:13.919Z,17.15
2016-09-18T02:26:35.688Z,17.13
2016-09-18T02:26:57.413Z,17.16
2016-09-18T02:27:28.694Z,17.22
2016-09-18T02:28:02.639Z,17.14
2016-09-18T02:28:31.289Z,17.09
2016-09-18T02:28:54.059Z,17.11
2016-09-18T02:29:43.471Z,17.15
2016-09-18T02:30:09.974Z,17.19
2016-09-18T02:30:37.516Z,17.25
2016-09-18T02:31:00.262Z,17.25
2016-09-18T02:31:22.024Z,17.27
2016-09-18T02:31:49.785Z,17.29
2016-09-18T02:32:11.551Z,17.27
2016-09-18T02:32:33.292Z,17.25
2016-09-18T02:33:00.860Z,17.25
2016-09-18T02:33:22.682Z,17.19
2016-09-18T02:33:44.414Z,17.12
2016-09-18T02:34:06.161Z,17.16
2016-09-18T02:34:27.941Z,17.12
2016-09-18T02:34:50.696Z,17.08
2016-09-18T02:35:17.212Z,17.02
2016-09-18T02:35:38.959Z,17.09
2016-09-18T02:36:00.741Z,17.18
2016-09-18T02:36:22.504Z,17.21
2016-09-18T02:37:46.998Z,17.25
2016-09-18T02:38:10.891Z,17.29
2016-09-18T02:38:32.648Z,17.31
2016-09-18T02:39:35.285Z,17.31
2016-09-18T02:40:06.591Z,17.14
2016-09-18T02:40:28.347Z,17.11
2016-09-18T02:40:50.134Z,17.10
2016-09-18T02:41:11.874Z,17.12
2016-09-18T02:41:38.402Z,17.11
2016-09-18T02:42:01.151Z,17.14
2016-09-18T02:42:23.996Z,17.17
2016-09-18T02:42:56.277Z,17.09
2016-09-18T02:43:19.234Z,17.13
2016-09-18T02:43:41.177Z,17.09
2016-09-18T02:44:29.571Z,17.10
2016-09-18T02:44:51.305Z,17.09
2016-09-18T02:45:13.051Z,17.10
2016-09-18T02:46:01.295Z,17.21
2016-09-18T02:46:24.082Z,17.29
2016-09-18T02:46:45.833Z,17.33
2016-09-18T02:47:07.571Z,17.36
2016-09-18T02:47:29.310Z,17.35
2016-09-18T02:47:51.199Z,17.36
2016-09-18T02:48:13.013Z,17.35
2016-09-18T02:48:34.808Z,17.30
2016-09-18T02:48:56.537Z,17.22
2016-09-18T02:49:18.319Z,17.14
2016-09-18T02:49:40.072Z,17.13
2016-09-18T02:50:01.919Z,17.09
2016-09-18T02:50:31.129Z,17.11
2016-09-18T02:50:52.882Z,17.13
2016-09-18T02:51:22.172Z,17.14
2016-09-18T02:51:43.942Z,17.17
2016-09-18T02:52:17.624Z,17.16
2016-09-18T02:52:44.236Z,17.12
2016-09-18T02:53:05.975Z,17.18
2016-09-18T02:53:27.743Z,17.27
2016-09-18T02:53:49.663Z,17.29
2016-09-18T02:54:11.611Z,17.22
2016-09-18T02:54:40.952Z,17.24
2016-09-18T02:55:02.709Z,17.28
2016-09-18T02:55:24.450Z,17.28
2016-09-18T02:57:15.272Z,17.30
2016-09-18T02:57:38.255Z,17.32
2016-09-18T02:58:04.773Z,17.27
2016-09-18T02:58:27.864Z,17.19
2016-09-18T02:58:50.009Z,17.11
2016-09-18T02:59:19.301Z,17.13
2016-09-18T02:59:45.823Z,17.15
2016-09-18T03:00:39.849Z,17.13
2016-09-18T03:01:01.724Z,17.11
2016-09-18T03:01:33.001Z,17.15
2016-09-18T03:01:54.760Z,17.17
2016-09-18T03:02:21.295Z,17.23
2016-09-18T03:03:26.527Z,17.16
2016-09-18T03:03:53.882Z,17.20
2016-09-18T03:04:19.231Z,17.18
2016-09-18T03:05:08.482Z,17.13
2016-09-18T03:05:32.374Z,17.10
2016-09-18T03:05:55.222Z,17.14
2016-09-18T03:06:16.969Z,17.13
2016-09-18T03:06:39.714Z,17.03
2016-09-18T03:07:06.294Z,17.05
2016-09-18T03:07:28.053Z,17.10
2016-09-18T03:07:49.788Z,17.06
2016-09-18T03:08:11.541Z,17.05
2016-09-18T03:08:33.292Z,17.10
2016-09-18T03:08:55.053Z,17.19
2016-09-18T03:09:16.796Z,17.24
2016-09-18T03:09:38.553Z,17.26
2016-09-18T03:10:00.306Z,17.27
2016-09-18T03:10:24.232Z,17.27
2016-09-18T03:11:00.316Z,17.22
2016-09-18T03:11:22.935Z,17.22
2016-09-18T03:11:44.991Z,17.18
2016-09-18T03:12:06.984Z,17.11
2016-09-18T03:12:28.799Z,17.11
2016-09-18T03:13:26.563Z,17.12
2016-09-18T03:13:49.311Z,17.11
2016-09-18T03:14:13.072Z,17.12
2016-09-18T03:14:34.819Z,17.10
2016-09-18T03:14:56.591Z,17.13
2016-09-18T03:15:18.341Z,17.13
2016-09-18T03:15:44.854Z,17.15
2016-09-18T03:16:12.389Z,17.19
2016-09-18T03:16:34.147Z,17.22
2016-09-18T03:17:28.220Z,17.13
2016-09-18T03:17:49.976Z,17.07
2016-09-18T03:18:43.286Z,17.16
2016-09-18T03:19:05.545Z,17.18
2016-09-18T03:19:27.472Z,17.16
2016-09-18T03:20:27.173Z,17.16
2016-09-18T03:20:48.953Z,17.22
2016-09-18T03:21:12.796Z,17.26
2016-09-18T03:21:35.740Z,17.29
2016-09-18T03:21:58.640Z,17.30
2016-09-18T03:22:20.469Z,17.31
2016-09-18T03:22:43.481Z,17.30
2016-09-18T03:23:05.356Z,17.23
2016-09-18T03:23:27.113Z,17.20
2016-09-18T03:23:48.873Z,17.17
2016-09-18T03:24:10.610Z,17.18
2016-09-18T03:24:34.369Z,17.20
2016-09-18T03:24:56.115Z,17.23
2016-09-18T03:25:22.639Z,17.27
2016-09-18T03:25:44.371Z,17.22
2016-09-18T03:26:06.114Z,17.12
2016-09-18T03:26:33.641Z,17.08
2016-09-18T03:26:55.378Z,17.08
2016-09-18T03:27:18.166Z,17.12
2016-09-18T03:27:39.910Z,17.11
2016-09-18T03:28:06.428Z,17.13
2016-09-18T03:28:29.186Z,17.13
2016-09-18T03:28:55.722Z,17.12
2016-09-18T03:29:17.481Z,17.13
2016-09-18T03:31:03.949Z,17.32
2016-09-18T03:32:38.861Z,17.24
2016-09-18T03:33:51.922Z,17.26
2016-09-18T03:34:46.083Z,17.27
2016-09-18T03:36:20.933Z,17.27
2016-09-18T03:36:42.767Z,17.24
2016-09-18T03:38:35.916Z,17.23
2016-09-18T03:39:02.527Z,17.27
2016-09-18T03:39:29.052Z,17.29
2016-09-18T03:40:29.772Z,17.18
2016-09-18T03:40:51.567Z,17.14
2016-09-18T03:41:22.904Z,17.16
2016-09-18T03:41:47.327Z,17.22
2016-09-18T03:42:10.163Z,17.23
2016-09-18T03:43:38.421Z,17.16
2016-09-18T03:44:07.667Z,17.15
2016-09-18T03:44:43.722Z,17.05
2016-09-18T03:46:22.553Z,17.05
2016-09-18T03:48:29.555Z,17.02
2016-09-18T03:49:26.736Z,17.09
2016-09-18T03:51:03.008Z,17.08
2016-09-18T03:51:25.830Z,17.10
2016-09-18T03:51:56.102Z,17.17
2016-09-18T03:53:14.889Z,17.20
2016-09-18T03:54:03.142Z,17.25
2016-09-18T03:54:24.889Z,17.27
2016-09-18T03:54:46.652Z,17.27
2016-09-18T03:55:13.151Z,17.22
2016-09-18T03:55:34.924Z,17.22
2016-09-18T03:55:56.747Z,17.19
2016-09-18T03:56:18.524Z,17.14
2016-09-18T03:57:39.077Z,17.04
2016-09-18T03:58:01.880Z,17.00
2016-09-18T03:59:29.114Z,17.14
2016-09-18T03:59:50.864Z,17.17
2016-09-18T04:00:55.272Z,17.06
2016-09-18T04:01:21.785Z,17.12
2016-09-18T04:01:48.323Z,17.14
2016-09-18T04:02:14.818Z,17.20
2016-09-18T04:02:42.527Z,17.25
2016-09-18T04:03:04.310Z,17.25
2016-09-18T04:03:31.862Z,17.17
2016-09-18T04:03:55.606Z,17.12
2016-09-18T04:04:44.101Z,17.10
2016-09-18T04:05:08.492Z,17.13
2016-09-18T04:05:30.269Z,17.15
2016-09-18T04:05:52.025Z,17.11
2016-09-18T04:06:18.537Z,17.05
2016-09-18T04:06:40.316Z,17.10
2016-09-18T04:07:02.092Z,17.12
2016-09-18T04:07:23.865Z,17.16
2016-09-18T04:07:48.313Z,17.19
2016-09-18T04:08:10.060Z,17.21
2016-09-18T04:08:36.582Z,17.19
2016-09-18T04:09:04.104Z,17.18
2016-09-18T04:09:25.993Z,17.19
2016-09-18T04:09:47.740Z,17.19
2016-09-18T04:10:10.707Z,17.19
2016-09-18T04:10:32.559Z,17.20
2016-09-18T04:10:54.409Z,17.24
2016-09-18T04:11:16.162Z,17.26
2016-09-18T04:11:38.019Z,17.22
2016-09-18T04:12:04.531Z,17.23
2016-09-18T04:12:35.798Z,17.21
2016-09-18T04:13:02.355Z,17.20
2016-09-18T04:13:25.094Z,17.16
2016-09-18T04:13:47.836Z,17.14
2016-09-18T04:14:10.598Z,17.08
2016-09-18T04:15:08.293Z,17.01
2016-09-18T04:15:30.047Z,17.04
2016-09-18T04:16:26.649Z,17.02
2016-09-18T04:16:53.164Z,17.04
2016-09-18T04:17:17.823Z,17.05
2016-09-18T04:17:53.890Z,17.12
2016-09-18T04:18:43.213Z,17.20
2016-09-18T04:19:09.779Z,17.20
2016-09-18T04:19:32.697Z,17.24
2016-09-18T04:19:57.464Z,17.26
2016-09-18T04:20:19.232Z,17.29
2016-09-18T04:20:46.771Z,17.31
2016-09-18T04:22:02.566Z,17.29
2016-09-18T04:22:25.344Z,17.26
2016-09-18T04:22:48.205Z,17.23
2016-09-18T04:24:21.895Z,17.10
2016-09-18T04:25:17.939Z,17.11
2016-09-18T04:26:11.030Z,17.09
2016-09-18T04:26:38.752Z,17.11
2016-09-18T04:27:36.361Z,17.22
2016-09-18T04:28:00.149Z,17.25
2016-09-18T04:29:41.267Z,17.21
2016-09-18T04:30:04.108Z,17.15
2016-09-18T04:30:26.118Z,17.15
2016-09-18T04:30:50.528Z,17.19
2016-09-18T04:31:17.207Z,17.18
2016-09-18T04:31:43.725Z,17.15
2016-09-18T04:32:51.667Z,17.18
2016-09-18T04:33:13.421Z,17.19
2016-09-18T04:35:16.012Z,17.16
2016-09-18T04:35:37.814Z,17.20
2016-09-18T04:36:31.896Z,17.10
2016-09-18T04:36:58.463Z,17.12
2016-09-18T04:37:21.245Z,17.16
2016-09-18T04:37:44.019Z,17.19
2016-09-18T04:38:05.811Z,17.16
2016-09-18T04:38:27.654Z,17.15
2016-09-18T04:38:56.207Z,17.11
2016-09-18T04:39:23.772Z,17.13
2016-09-18T04:40:27.914Z,17.18
2016-09-18T04:40:52.211Z,17.16
2016-09-18T04:41:13.954Z,17.11
2016-09-18T04:41:35.728Z,17.10
2016-09-18T04:42:28.730Z,17.20
2016-09-18T04:42:53.398Z,17.19
2016-09-18T04:43:15.145Z,17.21
2016-09-18T04:43:37.917Z,17.23
2016-09-18T04:44:00.687Z,17.19
2016-09-18T04:44:27.209Z,17.13
2016-09-18T04:45:26.991Z,17.16
2016-09-18T04:45:53.456Z,17.12
2016-09-18T04:46:16.214Z,17.10
2016-09-18T04:46:37.984Z,17.11
2016-09-18T04:47:33.785Z,17.11
2016-09-18T04:47:55.573Z,17.09
2016-09-18T04:48:17.325Z,17.09
2016-09-18T04:48:39.261Z,17.02
2016-09-18T04:49:13.174Z,17.00
2016-09-18T04:49:49.581Z,17.04
2016-09-18T04:50:28.482Z,17.03
2016-09-18T04:50:50.269Z,17.07
2016-09-18T04:51:13.155Z,17.07
2016-09-18T04:52:16.362Z,17.15
2016-09-18T04:52:38.108Z,17.18
2016-09-18T04:53:34.617Z,17.13
2016-09-18T04:54:28.650Z,17.15
2016-09-18T04:54:51.431Z,17.16
2016-09-18T04:55:19.936Z,17.15
2016-09-18T04:55:41.682Z,17.13
2016-09-18T04:56:32.842Z,17.17
2016-09-18T04:56:55.603Z,17.15
2016-09-18T04:58:24.737Z,17.18
2016-09-18T04:59:24.556Z,17.18
2016-09-18T04:59:58.858Z,17.13
2016-09-18T05:00:34.893Z,17.07
2016-09-18T05:01:03.081Z,17.03
2016-09-18T05:01:24.950Z,17.01
2016-09-18T05:02:24.131Z,17.06
2016-09-18T05:03:21.828Z,17.06
2016-09-18T05:04:58.912Z,17.12
2016-09-18T05:05:49.840Z,17.16
2016-09-18T05:06:43.885Z,17.17
2016-09-18T05:07:06.598Z,17.22
2016-09-18T05:07:32.343Z,17.26
2016-09-18T05:07:55.085Z,17.30
2016-09-18T05:08:48.137Z,17.26
2016-09-18T05:09:41.197Z,17.25
2016-09-18T05:10:02.912Z,17.28
2016-09-18T05:10:24.643Z,17.31
2016-09-18T05:10:47.414Z,17.32
2016-09-18T05:11:09.145Z,17.33
2016-09-18T05:11:30.877Z,17.29
2016-09-18T05:11:52.611Z,17.29
2016-09-18T05:12:14.471Z,17.29
2016-09-18T05:12:36.234Z,17.29
2016-09-18T05:12:57.962Z,17.22
2016-09-18T05:13:19.702Z,17.24
2016-09-18T05:13:41.427Z,17.20
2016-09-18T05:14:03.175Z,17.18
2016-09-18T05:14:24.906Z,17.15
2016-09-18T05:14:46.694Z,17.13
2016-09-18T05:15:08.428Z,17.08
2016-09-18T05:15:30.160Z,17.07
2016-09-18T05:15:51.887Z,17.08
2016-09-18T05:16:13.619Z,17.12
2016-09-18T05:16:35.369Z,17.15
2016-09-18T05:16:57.250Z,17.18
2016-09-18T05:17:18.992Z,17.20
2016-09-18T05:17:40.727Z,17.22
2016-09-18T05:18:02.457Z,17.25
2016-09-18T05:18:24.186Z,17.20
2016-09-18T05:18:45.920Z,17.11
2016-09-18T05:19:07.673Z,17.06
2016-09-18T05:19:29.411Z,17.07
2016-09-18T05:19:51.143Z,17.10
2016-09-18T05:20:12.899Z,17.13
2016-09-18T05:20:34.631Z,17.12
2016-09-18T05:20:56.374Z,17.11
2016-09-18T05:21:18.135Z,17.16
2016-09-18T05:21:39.866Z,17.18
2016-09-18T05:22:01.591Z,17.21
2016-09-18T05:22:23.318Z,17.16
2016-09-18T05:22:45.046Z,17.15
2016-09-18T05:23:09.587Z,17.18
2016-09-18T05:23:31.322Z,17.20
2016-09-18T05:23:53.059Z,17.19
2016-09-18T05:24:14.791Z,17.13
2016-09-18T05:24:36.662Z,17.07
2016-09-18T05:24:58.396Z,17.04
2016-09-18T05:25:20.128Z,17.10
2016-09-18T05:25:41.869Z,17.12
2016-09-18T05:26:03.606Z,17.15
2016-09-18T05:26:25.328Z,17.18
2016-09-18T05:26:47.050Z,17.15
2016-09-18T05:27:08.777Z,17.19
2016-09-18T05:27:30.599Z,17.22
2016-09-18T05:27:52.332Z,17.24
2016-09-18T05:28:14.067Z,17.23
2016-09-18T05:28:35.795Z,17.23
2016-09-18T05:28:57.520Z,17.24
2016-09-18T05:29:19.270Z,17.27
2016-09-18T05:29:41.021Z,17.22
2016-09-18T05:30:02.753Z,17.22
2016-09-18T05:30:24.682Z,17.18
2016-09-18T05:30:46.412Z,17.16
2016-09-18T05:31:08.147Z,17.20
2016-09-18T05:31:29.906Z,17.20
2016-09-18T05:31:51.751Z,17.20
2016-09-18T05:32:13.489Z,17.21
2016-09-18T05:32:35.226Z,17.20
2016-09-18T05:32:56.944Z,17.20
2016-09-18T05:33:18.694Z,17.20
2016-09-18T05:33:40.426Z,17.16
2016-09-18T05:34:02.153Z,17.15
2016-09-18T05:34:23.897Z,17.14
2016-09-18T05:34:45.639Z,17.14
2016-09-18T05:35:07.376Z,17.17
2016-09-18T05:35:29.113Z,17.16
2016-09-18T05:35:50.838Z,17.15
2016-09-18T05:36:12.570Z,17.16
2016-09-18T05:36:34.304Z,17.16
2016-09-18T05:36:56.032Z,17.15
2016-09-18T05:37:17.770Z,17.18
2016-09-18T05:37:39.504Z,17.20
2016-09-18T05:38:01.260Z,17.21
2016-09-18T05:38:22.982Z,17.23
2016-09-18T05:38:44.740Z,17.24
2016-09-18T05:39:06.624Z,17.23
2016-09-18T05:39:28.358Z,17.19
2016-09-18T05:39:50.087Z,17.17
2016-09-18T05:40:11.816Z,17.19
2016-09-18T05:40:33.570Z,17.19
2016-09-18T05:40:55.286Z,17.22
2016-09-18T05:41:17.018Z,17.21
2016-09-18T05:41:38.755Z,17.13
2016-09-18T05:42:00.486Z,17.12
2016-09-18T05:42:22.230Z,17.14
2016-09-18T05:43:10.486Z,17.16
2016-09-18T05:43:32.212Z,17.14
2016-09-18T05:43:53.950Z,17.15
2016-09-18T05:44:15.703Z,17.16
2016-09-18T05:44:37.440Z,17.13
2016-09-18T05:44:59.171Z,17.18
2016-09-18T05:45:20.909Z,17.19
2016-09-18T05:45:42.634Z,17.18
2016-09-18T05:46:04.362Z,17.16
2016-09-18T05:46:26.108Z,17.14
2016-09-18T05:46:47.834Z,17.11
2016-09-18T05:47:09.625Z,17.11
2016-09-18T05:47:31.452Z,17.11
2016-09-18T05:47:53.191Z,17.12
2016-09-18T05:48:14.912Z,17.10
2016-09-18T05:48:36.647Z,17.06
2016-09-18T05:48:58.375Z,17.06
2016-09-18T05:49:20.109Z,17.10
2016-09-18T05:49:41.836Z,17.13
2016-09-18T05:50:03.578Z,17.11
2016-09-18T05:50:25.293Z,17.09
2016-09-18T05:50:47.021Z,17.12
2016-09-18T05:51:08.749Z,17.15
2016-09-18T05:51:30.490Z,17.15
2016-09-18T05:51:52.214Z,17.12
2016-09-18T05:52:13.939Z,17.14
2016-09-18T05:52:35.747Z,17.20
2016-09-18T05:52:57.478Z,17.21
2016-09-18T05:53:19.216Z,17.17
2016-09-18T05:53:40.947Z,17.18
2016-09-18T05:54:02.675Z,17.14
2016-09-18T05:54:24.483Z,17.15
2016-09-18T05:54:46.208Z,17.14
2016-09-18T05:55:07.939Z,17.16
2016-09-18T05:55:29.696Z,17.19
2016-09-18T05:55:51.437Z,17.19
2016-09-18T05:56:13.174Z,17.21
2016-09-18T05:56:35.014Z,17.15
2016-09-18T05:56:56.730Z,17.15
2016-09-18T05:57:18.454Z,17.16
2016-09-18T05:57:40.185Z,17.18
2016-09-18T05:58:01.914Z,17.18
2016-09-18T05:58:23.638Z,17.18
2016-09-18T05:58:45.382Z,17.22
2016-09-18T05:59:07.190Z,17.21
2016-09-18T05:59:28.920Z,17.19
2016-09-18T05:59:50.743Z,17.20
2016-09-18T06:00:12.502Z,17.21
2016-09-18T06:00:34.234Z,17.21
2016-09-18T06:00:55.964Z,17.23
2016-09-18T06:01:17.689Z,17.15
2016-09-18T06:01:39.424Z,17.12
2016-09-18T06:02:01.143Z,17.13
2016-09-18T06:02:22.877Z,17.14
2016-09-18T06:02:44.607Z,17.12
2016-09-18T06:03:06.358Z,17.13
2016-09-18T06:03:28.086Z,17.16
2016-09-18T06:03:49.817Z,17.17
2016-09-18T06:04:11.545Z,17.19
2016-09-18T06:04:33.290Z,17.19
2016-09-18T06:04:55.008Z,17.20
2016-09-18T06:05:16.755Z,17.16
2016-09-18T06:05:38.470Z,17.16
2016-09-18T06:06:00.205Z,17.16
2016-09-18T06:06:21.932Z,17.18
2016-09-18T06:06:43.668Z,17.24
2016-09-18T06:07:05.597Z,17.24
2016-09-18T06:07:27.346Z,17.28
2016-09-18T06:07:49.075Z,17.19
2016-09-18T06:08:10.809Z,17.14
2016-09-18T06:08:32.540Z,17.16
2016-09-18T06:08:54.275Z,17.13
2016-09-18T06:09:16.013Z,17.10
2016-09-18T06:09:37.747Z,17.12
2016-09-18T06:09:59.468Z,17.12
2016-09-18T06:10:21.203Z,17.11
2016-09-18T06:10:42.941Z,17.07
2016-09-18T06:11:04.672Z,17.06
2016-09-18T06:11:26.396Z,17.08
2016-09-18T06:11:48.128Z,17.07
2016-09-18T06:12:09.859Z,17.10
2016-09-18T06:12:31.587Z,17.11
2016-09-18T06:12:53.325Z,17.13
2016-09-18T06:13:15.050Z,17.11
2016-09-18T06:13:36.781Z,17.14
2016-09-18T06:13:58.502Z,17.19
2016-09-18T06:14:20.381Z,17.21
2016-09-18T06:14:46.890Z,17.24
2016-09-18T06:15:08.630Z,17.23
2016-09-18T06:15:30.377Z,17.21
2016-09-18T06:15:52.116Z,17.23
2016-09-18T06:16:13.833Z,17.21
2016-09-18T06:16:35.610Z,17.23
2016-09-18T06:16:57.322Z,17.22
2016-09-18T06:17:19.052Z,17.22
2016-09-18T06:17:40.790Z,17.19
2016-09-18T06:18:02.515Z,17.13
2016-09-18T06:18:25.306Z,17.10
2016-09-18T06:18:47.027Z,17.09
2016-09-18T06:19:08.758Z,17.09
2016-09-18T06:19:31.505Z,17.09
2016-09-18T06:19:53.626Z,17.09
2016-09-18T06:20:16.045Z,17.11
2016-09-18T06:20:37.857Z,17.10
2016-09-18T06:20:59.578Z,17.14
2016-09-18T06:21:21.475Z,17.16
2016-09-18T06:21:43.187Z,17.16
2016-09-18T06:22:05.940Z,17.11
2016-09-18T06:22:27.689Z,17.09
2016-09-18T06:22:49.464Z,17.10
2016-09-18T06:23:11.200Z,17.11
2016-09-18T06:23:32.934Z,17.09
2016-09-18T06:23:54.662Z,17.10
2016-09-18T06:24:16.393Z,17.09
2016-09-18T06:24:38.115Z,17.05
2016-09-18T06:24:59.849Z,17.03
2016-09-18T06:25:21.583Z,17.01